Time;durP1;ratioP1;P1;durP2;ratioP2;P2;SDS_P1;SDS_P2;PMS_P1;PMS_P2;Temp;Humidity;BMP_temperature;BMP_pressure;BME280_temperature;BME280_humidity;BME280_pressure;Samples;Min_cycle;Max_cycle;Signal;HPM_P1;HPM_P2
2023/03/05 00:01:32;;;;;;;6.07;0.65;;;;;;;;;;4996035;28;20082;-69
2023/03/05 00:03:59;;;;;;;7.28;0.75;;;;;;;;;;4990059;28;20042;-68
2023/03/05 00:06:28;;;;;;;3.75;0.75;;;;;;;;;;4988735;28;20058;-69
2023/03/05 00:08:57;;;;;;;6.22;0.60;;;;;;;;;;4988228;28;20049;-69
2023/03/05 00:11:26;;;;;;;9.02;0.75;;;;;;;;;;4993005;28;20498;-68
2023/03/05 00:13:54;;;;;;;8.30;0.85;;;;;;;;;;4994497;28;20089;-68
2023/03/05 00:16:22;;;;;;;14.35;0.73;;;;;;;;;;4999779;28;20046;-68
2023/03/05 00:18:49;;;;;;;13.68;1.05;;;;;;;;;;4992501;28;20054;-69
2023/03/05 00:21:19;;;;;;;5.38;0.60;;;;;;;;;;4995809;28;20060;-68
2023/03/05 00:23:46;;;;;;;12.15;0.98;;;;;;;;;;4976981;28;20050;-68
2023/03/05 00:26:15;;;;;;;3.40;0.65;;;;;;;;;;4996339;28;20053;-68
2023/03/05 00:28:42;;;;;;;7.80;0.90;;;;;;;;;;4994103;28;20058;-69
2023/03/05 00:31:09;;;;;;;8.30;0.90;;;;;;;;;;4996343;28;20060;-68
2023/03/05 00:33:36;;;;;;;7.50;0.82;;;;;;;;;;4994020;28;20062;-69
2023/03/05 00:36:06;;;;;;;14.48;1.10;;;;;;;;;;4995198;28;20056;-68
2023/03/05 00:38:34;;;;;;;10.15;1.02;;;;;;;;;;5000244;28;20050;-69
2023/03/05 00:41:01;;;;;;;5.85;0.90;;;;;;;;;;4993295;28;20133;-68
2023/03/05 00:43:30;;;;;;;8.50;1.00;;;;;;;;;;4994975;28;20089;-68
2023/03/05 00:45:57;;;;;;;14.25;1.70;;;;;;;;;;4992978;28;20497;-68
2023/03/05 00:48:25;;;;;;;7.05;1.65;;;;;;;;;;5001693;28;20481;-69
2023/03/05 00:50:52;;;;;;;8.48;1.00;;;;;;;;;;4993721;28;20046;-69
2023/03/05 00:53:19;;;;;;;10.63;0.80;;;;;;;;;;4993412;28;20043;-68
2023/03/05 00:55:47;;;;;;;13.40;1.80;;;;;;;;;;4998653;28;20066;-68
2023/03/05 00:58:14;;;;;;;10.25;0.98;;;;;;;;;;4998766;28;20046;-69
2023/03/05 01:00:43;;;;;;;17.52;1.38;;;;;;;;;;4999534;28;20064;-69
2023/03/05 01:03:10;;;;;;;5.32;0.88;;;;;;;;;;4996690;28;20050;-69
2023/03/05 01:05:37;;;;;;;10.73;1.13;;;;;;;;;;4983918;28;20054;-69
2023/03/05 01:08:05;;;;;;;9.20;0.90;;;;;;;;;;4996984;28;20498;-68
2023/03/05 01:10:32;;;;;;;9.68;1.42;;;;;;;;;;4979870;28;20057;-69
2023/03/05 01:13:00;;;;;;;6.82;0.93;;;;;;;;;;4994215;28;20577;-68
2023/03/05 01:15:27;;;;;;;15.55;1.85;;;;;;;;;;4993504;28;20513;-68
2023/03/05 01:17:56;;;;;;;10.52;1.25;;;;;;;;;;4976976;28;20061;-69
2023/03/05 01:20:23;;;;;;;10.38;1.20;;;;;;;;;;4997469;28;20050;-68
2023/03/05 01:22:51;;;;;;;13.40;1.30;;;;;;;;;;5000222;28;20408;-68
2023/03/05 01:25:19;;;;;;;8.35;1.00;;;;;;;;;;4992730;28;20049;-69
2023/03/05 01:27:46;;;;;;;10.38;1.00;;;;;;;;;;4995098;28;20426;-75
2023/03/05 01:30:15;;;;;;;9.32;1.25;;;;;;;;;;4971128;28;20649;-74
2023/03/05 01:32:42;;;;;;;11.20;1.05;;;;;;;;;;4964177;28;20043;-73
2023/03/05 01:35:16;;;;;;;6.30;0.82;;;;;;;;;;4973702;28;20058;-73
2023/03/05 01:37:43;;;;;;;4.40;0.43;;;;;;;;;;4973742;28;20061;-73
2023/03/05 01:40:11;;;;;;;2.33;0.28;;;;;;;;;;4972179;28;20050;-73
2023/03/05 01:42:38;;;;;;;3.65;0.25;;;;;;;;;;4994055;28;20050;-73
2023/03/05 01:45:09;;;;;;;4.15;0.40;;;;;;;;;;4992902;28;20046;-74
2023/03/05 01:47:36;;;;;;;0.55;0.10;;;;;;;;;;4990044;28;20046;-73
2023/03/05 01:50:03;;;;;;;3.10;0.30;;;;;;;;;;4976849;28;20042;-73
2023/03/05 01:52:33;;;;;;;3.47;0.60;;;;;;;;;;4980387;28;20070;-73
2023/03/05 01:55:02;;;;;;;4.15;0.30;;;;;;;;;;4982818;28;20090;-73
2023/03/05 01:57:32;;;;;;;2.38;0.40;;;;;;;;;;4978255;28;20453;-73
2023/03/05 02:00:02;;;;;;;6.55;0.30;;;;;;;;;;4975052;28;20449;-73
2023/03/05 02:02:30;;;;;;;3.13;0.45;;;;;;;;;;4977899;28;20056;-73
2023/03/05 02:04:59;;;;;;;4.28;0.60;;;;;;;;;;4974497;28;20054;-73
2023/03/05 02:07:27;;;;;;;4.25;1.27;;;;;;;;;;4970747;28;20054;-73
2023/03/05 02:09:55;;;;;;;3.78;0.50;;;;;;;;;;4976063;28;20050;-73
2023/03/05 02:12:23;;;;;;;9.05;0.50;;;;;;;;;;4974997;28;20053;-73
2023/03/05 02:14:57;;;;;;;6.20;0.63;;;;;;;;;;4996258;28;20054;-72
2023/03/05 02:17:25;;;;;;;6.57;0.50;;;;;;;;;;4973299;28;20489;-73
2023/03/05 02:19:53;;;;;;;7.68;0.90;;;;;;;;;;4979056;28;20058;-73
2023/03/05 02:22:23;;;;;;;9.23;1.52;;;;;;;;;;4996438;28;20408;-73
2023/03/05 02:24:51;;;;;;;8.25;1.05;;;;;;;;;;4977774;28;20056;-73
2023/03/05 02:27:18;;;;;;;7.93;0.77;;;;;;;;;;4978515;28;20502;-73
2023/03/05 02:29:47;;;;;;;7.93;0.77;;;;;;;;;;4976937;28;20060;-72
2023/03/05 02:32:14;;;;;;;8.38;0.80;;;;;;;;;;4991108;28;20042;-72
2023/03/05 02:34:41;;;;;;;6.65;0.60;;;;;;;;;;4977011;28;20061;-72
2023/03/05 02:37:09;;;;;;;9.00;0.50;;;;;;;;;;4971810;28;20104;-72
2023/03/05 02:39:38;;;;;;;8.63;0.40;;;;;;;;;;4994291;28;20108;-73
2023/03/05 02:42:05;;;;;;;8.35;0.50;;;;;;;;;;4998314;28;20133;-73
2023/03/05 02:44:33;;;;;;;6.07;0.90;;;;;;;;;;4975417;28;20054;-73
2023/03/05 02:47:00;;;;;;;6.00;0.40;;;;;;;;;;4995189;28;20052;-73
2023/03/05 02:49:27;;;;;;;2.83;0.63;;;;;;;;;;4975409;28;20069;-73
2023/03/05 02:51:55;;;;;;;5.85;0.63;;;;;;;;;;4967576;28;20137;-73
2023/03/05 02:54:22;;;;;;;3.38;0.30;;;;;;;;;;4977478;28;20041;-72
2023/03/05 02:56:51;;;;;;;3.45;0.35;;;;;;;;;;4975643;28;20505;-73
2023/03/05 02:59:18;;;;;;;8.13;0.88;;;;;;;;;;4973817;28;20062;-73
2023/03/05 03:01:45;;;;;;;4.68;0.40;;;;;;;;;;4975256;28;20054;-73
2023/03/05 03:04:13;;;;;;;7.03;0.60;;;;;;;;;;4974043;28;20038;-72
2023/03/05 03:06:40;;;;;;;4.20;0.40;;;;;;;;;;4978829;28;20081;-72
2023/03/05 03:09:07;;;;;;;6.80;0.45;;;;;;;;;;4974018;28;20050;-73
2023/03/05 03:11:34;;;;;;;6.03;0.57;;;;;;;;;;4973191;28;20061;-72
2023/03/05 03:14:03;;;;;;;5.68;0.35;;;;;;;;;;4971008;28;20545;-73
2023/03/05 03:16:31;;;;;;;3.80;0.40;;;;;;;;;;4973442;28;20046;-72
2023/03/05 03:18:58;;;;;;;4.03;0.50;;;;;;;;;;4974782;28;20054;-72
2023/03/05 03:21:26;;;;;;;6.30;0.75;;;;;;;;;;4979622;28;20477;-72
2023/03/05 03:23:54;;;;;;;9.15;0.45;;;;;;;;;;4975564;28;20417;-73
2023/03/05 03:26:21;;;;;;;10.00;0.50;;;;;;;;;;4977638;28;20413;-73
2023/03/05 03:28:48;;;;;;;5.25;0.52;;;;;;;;;;4977116;28;20050;-73
2023/03/05 03:31:17;;;;;;;4.93;0.50;;;;;;;;;;4972620;28;20057;-73
2023/03/05 03:33:44;;;;;;;4.40;0.57;;;;;;;;;;4980550;28;20084;-72
2023/03/05 03:36:12;;;;;;;3.97;0.85;;;;;;;;;;4974011;28;21395;-73
2023/03/05 03:38:39;;;;;;;6.22;0.93;;;;;;;;;;4972835;28;20597;-72
2023/03/05 03:41:07;;;;;;;5.40;0.93;;;;;;;;;;4971344;28;20051;-73
2023/03/05 03:43:34;;;;;;;7.82;0.98;;;;;;;;;;4995702;28;20421;-73
2023/03/05 03:46:03;;;;;;;6.70;1.73;;;;;;;;;;4973908;28;20398;-73
2023/03/05 03:48:32;;;;;;;6.30;0.63;;;;;;;;;;4980200;28;20061;-73
2023/03/05 03:50:59;;;;;;;5.47;0.63;;;;;;;;;;4977209;28;20630;-73
2023/03/05 03:53:27;;;;;;;5.45;0.50;;;;;;;;;;4976639;28;20061;-73
2023/03/05 03:55:58;;;;;;;6.22;0.40;;;;;;;;;;4977827;28;20588;-73
2023/03/05 03:58:25;;;;;;;3.38;0.50;;;;;;;;;;4982281;28;20108;-73
2023/03/05 04:00:52;;;;;;;8.13;0.60;;;;;;;;;;4980649;28;20386;-73
2023/03/05 04:03:20;;;;;;;6.07;0.70;;;;;;;;;;4979613;28;20509;-73
2023/03/05 04:05:48;;;;;;;9.15;0.80;;;;;;;;;;4977407;28;20476;-73
2023/03/05 04:08:16;;;;;;;8.32;0.60;;;;;;;;;;4977445;28;20058;-73
2023/03/05 04:10:43;;;;;;;10.07;0.93;;;;;;;;;;4977851;28;20520;-73
2023/03/05 04:13:10;;;;;;;7.70;0.70;;;;;;;;;;4978686;28;20046;-73
2023/03/05 04:15:37;;;;;;;7.10;0.60;;;;;;;;;;4977403;28;20058;-73
2023/03/05 04:18:05;;;;;;;6.13;0.70;;;;;;;;;;4982963;28;20049;-73
2023/03/05 04:20:32;;;;;;;12.68;0.90;;;;;;;;;;4974285;28;20054;-73
2023/03/05 04:23:01;;;;;;;6.50;0.77;;;;;;;;;;4983011;28;20058;-73
2023/03/05 04:25:28;;;;;;;7.95;0.93;;;;;;;;;;4987271;28;20416;-73
2023/03/05 04:27:55;;;;;;;9.95;1.50;;;;;;;;;;4981188;28;20133;-73
2023/03/05 04:30:22;;;;;;;5.90;0.77;;;;;;;;;;4980644;28;20047;-73
2023/03/05 04:32:50;;;;;;;10.30;1.17;;;;;;;;;;4977839;28;20054;-73
2023/03/05 04:35:17;;;;;;;8.23;0.95;;;;;;;;;;4978138;28;20050;-73
2023/03/05 04:37:45;;;;;;;7.22;0.80;;;;;;;;;;4977478;28;20140;-74
2023/03/05 04:40:14;;;;;;;7.95;1.00;;;;;;;;;;4974973;28;20551;-73
2023/03/05 04:42:41;;;;;;;8.05;0.90;;;;;;;;;;4975567;28;20073;-73
2023/03/05 04:45:09;;;;;;;7.28;0.88;;;;;;;;;;4976886;28;20056;-73
2023/03/05 04:47:37;;;;;;;13.48;0.80;;;;;;;;;;4977130;28;20058;-73
2023/03/05 04:50:04;;;;;;;7.97;1.05;;;;;;;;;;4976349;28;20042;-73
2023/03/05 04:52:32;;;;;;;7.88;0.63;;;;;;;;;;4981097;28;20061;-73
2023/03/05 04:54:59;;;;;;;6.40;0.85;;;;;;;;;;4975508;28;20561;-73
2023/03/05 04:57:28;;;;;;;7.25;0.77;;;;;;;;;;4974926;28;20069;-73
2023/03/05 04:59:55;;;;;;;6.85;0.80;;;;;;;;;;4979546;28;20058;-73
2023/03/05 05:02:22;;;;;;;10.35;1.00;;;;;;;;;;4976873;28;20564;-73
2023/03/05 05:04:53;;;;;;;6.38;0.47;;;;;;;;;;4981125;28;20054;-73
2023/03/05 05:07:20;;;;;;;8.82;0.80;;;;;;;;;;4977736;28;20054;-73
2023/03/05 05:09:47;;;;;;;4.60;0.80;;;;;;;;;;4980240;28;20065;-73
2023/03/05 05:12:15;;;;;;;8.25;0.77;;;;;;;;;;4977809;28;20053;-73
2023/03/05 05:14:43;;;;;;;5.85;0.70;;;;;;;;;;4977978;28;20065;-73
2023/03/05 05:17:10;;;;;;;8.05;1.48;;;;;;;;;;4976315;28;20081;-73
2023/03/05 05:19:38;;;;;;;7.03;0.50;;;;;;;;;;4980958;28;20060;-73
2023/03/05 05:22:05;;;;;;;10.98;0.85;;;;;;;;;;4999289;28;20046;-73
2023/03/05 05:24:32;;;;;;;7.00;1.70;;;;;;;;;;4977993;28;20049;-73
2023/03/05 05:26:59;;;;;;;10.63;1.08;;;;;;;;;;4976577;28;20050;-73
2023/03/05 05:29:27;;;;;;;7.90;0.90;;;;;;;;;;4980581;28;20069;-73
2023/03/05 05:31:55;;;;;;;5.75;0.90;;;;;;;;;;4979094;28;20053;-73
2023/03/05 05:34:24;;;;;;;9.35;1.17;;;;;;;;;;4976669;28;20130;-73
2023/03/05 05:36:51;;;;;;;5.03;0.63;;;;;;;;;;4979877;28;20046;-73
2023/03/05 05:39:18;;;;;;;9.90;0.90;;;;;;;;;;4974494;28;20058;-73
2023/03/05 05:41:46;;;;;;;9.35;0.90;;;;;;;;;;4978538;28;20053;-73
2023/03/05 05:44:13;;;;;;;9.05;1.23;;;;;;;;;;4978928;28;20049;-73
2023/03/05 05:46:40;;;;;;;8.20;0.65;;;;;;;;;;4976185;28;20058;-73
2023/03/05 05:49:09;;;;;;;10.30;0.70;;;;;;;;;;4977746;28;20045;-73
2023/03/05 05:51:36;;;;;;;14.07;1.38;;;;;;;;;;4981748;28;20050;-73
2023/03/05 05:54:03;;;;;;;9.23;1.00;;;;;;;;;;4983405;28;20045;-73
2023/03/05 05:56:30;;;;;;;9.55;1.10;;;;;;;;;;4983381;28;20133;-73
2023/03/05 05:58:58;;;;;;;13.90;1.23;;;;;;;;;;4979962;28;20050;-73
2023/03/05 06:01:26;;;;;;;9.32;1.40;;;;;;;;;;4984344;28;20494;-73
2023/03/05 06:03:54;;;;;;;13.73;1.35;;;;;;;;;;4979288;28;20057;-73
2023/03/05 06:06:24;;;;;;;11.77;1.08;;;;;;;;;;4974330;28;20089;-73
2023/03/05 06:08:51;;;;;;;8.50;0.70;;;;;;;;;;4972044;28;20077;-73
2023/03/05 06:11:19;;;;;;;7.45;0.80;;;;;;;;;;4979075;28;20413;-73
2023/03/05 06:13:47;;;;;;;9.38;1.02;;;;;;;;;;4979414;28;20540;-73
2023/03/05 06:16:15;;;;;;;7.53;1.00;;;;;;;;;;4986888;28;20038;-73
2023/03/05 06:18:43;;;;;;;7.70;0.90;;;;;;;;;;4978305;28;20549;-73
2023/03/05 06:21:12;;;;;;;8.32;1.27;;;;;;;;;;4979193;28;20499;-73
2023/03/05 06:23:40;;;;;;;6.97;0.77;;;;;;;;;;4974874;28;20053;-73
2023/03/05 06:26:08;;;;;;;6.70;0.93;;;;;;;;;;4982760;28;20050;-73
2023/03/05 06:28:36;;;;;;;10.45;0.82;;;;;;;;;;4979381;28;20042;-73
2023/03/05 06:31:04;;;;;;;7.53;0.90;;;;;;;;;;4976644;28;20058;-73
2023/03/05 06:33:31;;;;;;;5.07;0.90;;;;;;;;;;4978881;28;20050;-73
2023/03/05 06:35:59;;;;;;;14.02;1.67;;;;;;;;;;4976992;28;20046;-73
2023/03/05 06:38:26;;;;;;;6.60;0.80;;;;;;;;;;4979255;28;20165;-73
2023/03/05 06:40:55;;;;;;;14.57;1.42;;;;;;;;;;4976502;28;20093;-73
2023/03/05 06:43:22;;;;;;;11.88;1.10;;;;;;;;;;4979608;28;20046;-73
2023/03/05 06:45:50;;;;;;;13.48;1.17;;;;;;;;;;4979834;28;20085;-73
2023/03/05 06:48:17;;;;;;;8.43;1.13;;;;;;;;;;4976280;28;20399;-73
2023/03/05 06:50:44;;;;;;;4.47;0.65;;;;;;;;;;4977860;28;20128;-73
2023/03/05 06:53:12;;;;;;;10.35;1.10;;;;;;;;;;4972604;28;20050;-73
2023/03/05 06:55:39;;;;;;;12.82;3.95;;;;;;;;;;4974515;28;20493;-73
2023/03/05 06:58:08;;;;;;;9.18;1.52;;;;;;;;;;4976503;28;20548;-73
2023/03/05 07:00:36;;;;;;;15.50;2.58;;;;;;;;;;4976206;28;20054;-73
2023/03/05 07:03:03;;;;;;;10.95;3.97;;;;;;;;;;4975240;28;20060;-73
2023/03/05 07:05:30;;;;;;;13.27;1.85;;;;;;;;;;4974713;28;20056;-73
2023/03/05 07:07:57;;;;;;;13.27;1.38;;;;;;;;;;4970221;28;20047;-73
2023/03/05 07:10:25;;;;;;;11.00;1.70;;;;;;;;;;4974005;28;20056;-73
2023/03/05 07:12:52;;;;;;;8.18;1.00;;;;;;;;;;4972665;28;20061;-73
2023/03/05 07:15:21;;;;;;;11.13;1.05;;;;;;;;;;4972761;28;20078;-73
2023/03/05 07:17:48;;;;;;;16.52;2.97;;;;;;;;;;4973433;28;20065;-73
2023/03/05 07:20:15;;;;;;;10.48;1.13;;;;;;;;;;4977571;28;20060;-73
2023/03/05 07:22:42;;;;;;;8.80;1.02;;;;;;;;;;4976866;28;20054;-73
2023/03/05 07:25:10;;;;;;;8.13;1.05;;;;;;;;;;4982732;28;20053;-73
2023/03/05 07:27:37;;;;;;;13.85;1.10;;;;;;;;;;4974933;28;20513;-73
2023/03/05 07:30:05;;;;;;;6.50;0.85;;;;;;;;;;4994454;28;20050;-73
2023/03/05 07:32:35;;;;;;;10.00;1.20;;;;;;;;;;4974664;28;20413;-73
2023/03/05 07:35:03;;;;;;;24.27;2.53;;;;;;;;;;4972750;28;20073;-73
2023/03/05 07:37:30;;;;;;;20.95;1.42;;;;;;;;;;4976822;28;20532;-73
2023/03/05 07:39:57;;;;;;;15.73;1.40;;;;;;;;;;4987819;28;20050;-73
2023/03/05 07:42:25;;;;;;;6.80;1.17;;;;;;;;;;4978727;28;20042;-73
2023/03/05 07:44:52;;;;;;;11.32;1.50;;;;;;;;;;4976671;28;20050;-73
2023/03/05 07:47:19;;;;;;;14.88;1.55;;;;;;;;;;4977241;28;20046;-73
2023/03/05 07:49:48;;;;;;;7.22;0.93;;;;;;;;;;4972759;28;20053;-73
2023/03/05 07:52:15;;;;;;;10.98;2.10;;;;;;;;;;4971845;28;20126;-73
2023/03/05 07:54:43;;;;;;;15.32;1.42;;;;;;;;;;4973613;28;20125;-73
2023/03/05 07:57:12;;;;;;;9.95;1.05;;;;;;;;;;4974576;28;20069;-73
2023/03/05 07:59:39;;;;;;;9.32;1.23;;;;;;;;;;4990627;28;20493;-73
2023/03/05 08:02:06;;;;;;;14.63;1.35;;;;;;;;;;4975182;28;20494;-73
2023/03/05 08:04:34;;;;;;;11.85;1.35;;;;;;;;;;4977654;28;20050;-73
2023/03/05 08:07:02;;;;;;;7.97;0.93;;;;;;;;;;4968214;28;20054;-73
2023/03/05 08:09:30;;;;;;;13.98;1.25;;;;;;;;;;4972250;28;20129;-73
2023/03/05 08:11:57;;;;;;;12.45;0.77;;;;;;;;;;4970588;28;20076;-73
2023/03/05 08:14:24;;;;;;;6.78;1.00;;;;;;;;;;4995800;28;20046;-73
2023/03/05 08:16:52;;;;;;;9.63;0.60;;;;;;;;;;4973569;28;20061;-73
2023/03/05 08:19:20;;;;;;;8.52;0.70;;;;;;;;;;4980295;28;20061;-73
2023/03/05 08:21:47;;;;;;;9.70;0.80;;;;;;;;;;4976121;28;20072;-73
2023/03/05 08:24:16;;;;;;;11.70;1.15;;;;;;;;;;4973195;28;20046;-73
2023/03/05 08:26:43;;;;;;;18.08;2.15;;;;;;;;;;4974755;28;20045;-73
2023/03/05 08:29:11;;;;;;;9.43;1.38;;;;;;;;;;4968906;28;20055;-73
2023/03/05 08:31:38;;;;;;;16.55;2.00;;;;;;;;;;4974671;28;20061;-72
2023/03/05 08:34:06;;;;;;;18.05;1.30;;;;;;;;;;4978220;28;20050;-73
2023/03/05 08:36:34;;;;;;;10.50;1.50;;;;;;;;;;4977525;28;20081;-73
2023/03/05 08:39:02;;;;;;;10.73;1.85;;;;;;;;;;4973076;28;20050;-73
2023/03/05 08:41:30;;;;;;;17.52;1.50;;;;;;;;;;4978051;28;20051;-73
2023/03/05 08:43:58;;;;;;;9.30;1.50;;;;;;;;;;4976780;28;20062;-73
2023/03/05 08:46:25;;;;;;;12.40;2.22;;;;;;;;;;4976458;28;20042;-73
2023/03/05 08:48:52;;;;;;;12.38;1.00;;;;;;;;;;4977260;28;20058;-72
2023/03/05 08:51:21;;;;;;;12.23;1.23;;;;;;;;;;4976340;28;20054;-73
2023/03/05 08:53:48;;;;;;;11.95;0.95;;;;;;;;;;4995841;28;20518;-73
2023/03/05 08:56:15;;;;;;;10.77;0.98;;;;;;;;;;4977414;28;20058;-73
2023/03/05 08:58:45;;;;;;;11.30;1.20;;;;;;;;;;4983385;28;20057;-73
2023/03/05 09:01:12;;;;;;;14.07;1.40;;;;;;;;;;4978845;28;20058;-73
2023/03/05 09:03:39;;;;;;;10.20;1.02;;;;;;;;;;4982783;28;20229;-73
2023/03/05 09:06:08;;;;;;;3.03;0.60;;;;;;;;;;4984084;28;20043;-73
2023/03/05 09:08:35;;;;;;;7.60;0.88;;;;;;;;;;4984702;28;20054;-72
2023/03/05 09:11:03;;;;;;;5.45;0.75;;;;;;;;;;4984841;28;20387;-72
2023/03/05 09:13:30;;;;;;;6.55;0.73;;;;;;;;;;4965869;28;20060;-72
2023/03/05 09:16:00;;;;;;;9.98;1.00;;;;;;;;;;4980324;28;20405;-72
2023/03/05 09:18:28;;;;;;;14.32;1.40;;;;;;;;;;4981350;28;20057;-72
2023/03/05 09:20:55;;;;;;;6.65;0.60;;;;;;;;;;4981165;28;20414;-73
2023/03/05 09:23:23;;;;;;;5.18;0.70;;;;;;;;;;4982310;28;20054;-73
2023/03/05 09:25:50;;;;;;;9.18;0.88;;;;;;;;;;4992411;28;20048;-72
2023/03/05 09:28:18;;;;;;;9.00;1.10;;;;;;;;;;4982274;28;20070;-73
2023/03/05 09:30:45;;;;;;;12.68;1.15;;;;;;;;;;4996413;28;20074;-72
2023/03/05 09:33:14;;;;;;;6.95;0.93;;;;;;;;;;4975624;28;20062;-72
2023/03/05 09:35:41;;;;;;;13.02;0.95;;;;;;;;;;4972246;28;20046;-72
2023/03/05 09:38:08;;;;;;;7.75;0.68;;;;;;;;;;4982471;28;20554;-72
2023/03/05 09:40:41;;;;;;;3.80;0.55;;;;;;;;;;4973351;28;20462;-72
2023/03/05 09:43:15;;;;;;;6.97;0.77;;;;;;;;;;4972021;28;20051;-72
2023/03/05 09:45:42;;;;;;;;;;;;;;;;;;4973858;28;20055;-72
2023/03/05 09:48:14;;;;;;;6.70;0.70;;;;;;;;;;4976045;28;19946;-72
2023/03/05 09:50:44;;;;;;;9.15;1.00;;;;;;;;;;4977070;28;20047;-72
2023/03/05 09:53:18;;;;;;;10.43;1.00;;;;;;;;;;4972333;28;20109;-73
2023/03/05 09:55:47;;;;;;;6.70;0.88;;;;;;;;;;4974965;28;20058;-72
2023/03/05 09:58:16;;;;;;;4.70;0.70;;;;;;;;;;4981337;28;20098;-72
2023/03/05 10:00:45;;;;;;;6.85;1.00;;;;;;;;;;4977896;28;20082;-72
2023/03/05 10:03:15;;;;;;;7.50;1.13;;;;;;;;;;4974334;28;20050;-72
2023/03/05 10:06:00;;;;;;;8.45;0.93;;;;;;;;;;4977809;28;20101;-73
2023/03/05 10:08:32;;;;;;;7.20;0.77;;;;;;;;;;4973475;28;20478;-70
2023/03/05 10:11:02;;;;;;;6.93;1.10;;;;;;;;;;4972593;28;20138;-72
2023/03/05 10:13:31;;;;;;;11.10;1.00;;;;;;;;;;4977614;28;20089;-72
2023/03/05 10:16:06;;;;;;;6.72;0.70;;;;;;;;;;4970022;28;20054;-72
2023/03/05 10:18:35;;;;;;;6.75;1.00;;;;;;;;;;4970150;28;20386;-72
2023/03/05 10:21:04;;;;;;;5.85;0.77;;;;;;;;;;4969853;28;20051;-72
2023/03/05 10:23:43;;;;;;;5.82;1.00;;;;;;;;;;4975974;28;20046;-72
2023/03/05 10:26:21;;;;;;;7.00;0.80;;;;;;;;;;4974037;28;20039;-72
2023/03/05 10:28:53;;;;;;;4.05;0.60;;;;;;;;;;4968399;28;20058;-72
2023/03/05 10:31:36;;;;;;;6.45;0.57;;;;;;;;;;4975278;28;20415;-72
2023/03/05 10:34:13;;;;;;;6.22;0.82;;;;;;;;;;4973524;28;20062;-72
2023/03/05 10:36:48;;;;;;;7.82;0.70;;;;;;;;;;4973991;28;20054;-72
2023/03/05 10:39:25;;;;;;;4.60;0.60;;;;;;;;;;4965224;28;20503;-72
2023/03/05 10:42:01;;;;;;;6.57;0.60;;;;;;;;;;4968144;28;20055;-73
2023/03/05 10:44:33;;;;;;;4.10;0.77;;;;;;;;;;4970104;28;20133;-72
2023/03/05 10:47:02;;;;;;;6.47;0.80;;;;;;;;;;4972012;28;20047;-72
2023/03/05 10:49:30;;;;;;;4.60;0.65;;;;;;;;;;4969717;28;20050;-72
2023/03/05 10:51:59;;;;;;;6.65;0.90;;;;;;;;;;4977209;28;20069;-72
2023/03/05 10:54:29;;;;;;;7.97;0.90;;;;;;;;;;4972554;28;20554;-72
2023/03/05 10:57:03;;;;;;;6.35;0.85;;;;;;;;;;4972335;28;20130;-72
2023/03/05 10:59:30;;;;;;;4.75;0.80;;;;;;;;;;4976426;28;20086;-72
2023/03/05 11:02:07;;;;;;;5.43;0.65;;;;;;;;;;4976783;28;20514;-72
2023/03/05 11:04:36;;;;;;;4.50;0.45;;;;;;;;;;4973677;28;20057;-72
2023/03/05 11:07:07;;;;;;;3.90;0.55;;;;;;;;;;4983063;28;20058;-72
2023/03/05 11:09:35;;;;;;;5.00;0.70;;;;;;;;;;4976856;28;20058;-72
2023/03/05 11:12:05;;;;;;;5.50;0.80;;;;;;;;;;4976867;28;20066;-72
2023/03/05 11:14:33;;;;;;;7.32;0.80;;;;;;;;;;4974570;28;20133;-72
2023/03/05 11:17:01;;;;;;;7.18;0.93;;;;;;;;;;4972790;28;20051;-73
2023/03/05 11:19:31;;;;;;;11.90;1.17;;;;;;;;;;4971029;28;20070;-72
2023/03/05 11:22:13;;;;;;;7.07;0.60;;;;;;;;;;4968289;28;20051;-72
2023/03/05 11:24:42;;;;;;;10.35;1.00;;;;;;;;;;4972278;28;20134;-72
2023/03/05 11:27:23;;;;;;;7.47;0.73;;;;;;;;;;4968601;28;20476;-72
2023/03/05 11:29:51;;;;;;;7.20;0.60;;;;;;;;;;4973392;28;20056;-72
2023/03/05 11:32:22;;;;;;;7.00;0.80;;;;;;;;;;4976720;28;20515;-72
2023/03/05 11:34:49;;;;;;;10.40;0.90;;;;;;;;;;4971013;28;20047;-72
2023/03/05 11:37:22;;;;;;;3.78;0.65;;;;;;;;;;4972609;28;20491;-72
2023/03/05 11:40:05;;;;;;;5.95;0.88;;;;;;;;;;4970526;28;20410;-72
2023/03/05 11:42:32;;;;;;;5.75;0.65;;;;;;;;;;4971401;28;20057;-72
2023/03/05 11:45:00;;;;;;;3.80;0.63;;;;;;;;;;4971347;28;20054;-72
2023/03/05 11:47:30;;;;;;;6.38;0.98;;;;;;;;;;4975015;28;20066;-73
2023/03/05 11:50:02;;;;;;;9.18;0.98;;;;;;;;;;4979073;28;20058;-74
2023/03/05 11:52:32;;;;;;;5.38;0.85;;;;;;;;;;4974999;28;20068;-74
2023/03/05 11:55:04;;;;;;;4.75;0.60;;;;;;;;;;4975016;28;20133;-73
2023/03/05 11:57:33;;;;;;;8.02;0.68;;;;;;;;;;4978063;28;20117;-72
2023/03/05 12:00:06;;;;;;;4.43;0.57;;;;;;;;;;4977076;28;20051;-72
2023/03/05 12:02:34;;;;;;;9.82;1.25;;;;;;;;;;4968073;28;20104;-71
2023/03/05 12:05:03;;;;;;;7.30;0.52;;;;;;;;;;4972658;28;20106;-69
2023/03/05 12:07:35;;;;;;;11.05;0.70;;;;;;;;;;4977339;28;20050;-69
2023/03/05 12:10:04;;;;;;;6.95;0.77;;;;;;;;;;4984702;28;20459;-68
2023/03/05 12:12:36;;;;;;;9.65;0.90;;;;;;;;;;4978490;28;20051;-67
2023/03/05 12:15:08;;;;;;;5.43;0.63;;;;;;;;;;4978558;28;20133;-67
2023/03/05 12:17:38;;;;;;;8.05;1.15;;;;;;;;;;4980152;28;20051;-67
2023/03/05 12:20:07;;;;;;;5.03;0.77;;;;;;;;;;4980817;28;20054;-67
2023/03/05 12:22:37;;;;;;;10.52;1.20;;;;;;;;;;4977053;28;20047;-67
2023/03/05 12:25:22;;;;;;;7.80;1.15;;;;;;;;;;4979973;28;20486;-66
2023/03/05 12:27:51;;;;;;;7.78;0.90;;;;;;;;;;4973712;28;20548;-66
2023/03/05 12:30:53;;;;;;;5.95;0.82;;;;;;;;;;4977094;28;20050;-67
2023/03/05 12:33:32;;;;;;;8.15;1.17;;;;;;;;;;4970802;28;20058;-67
2023/03/05 12:36:33;;;;;;;10.95;0.95;;;;;;;;;;4994300;28;20072;-66
2023/03/05 12:39:00;;;;;;;6.45;0.80;;;;;;;;;;4993804;28;20039;-66
2023/03/05 12:41:37;;;;;;;3.92;1.20;;;;;;;;;;5003824;28;20048;-66
2023/03/05 12:44:25;;;;;;;6.65;1.02;;;;;;;;;;4996488;28;20076;-66
2023/03/05 12:47:10;;;;;;;5.55;0.73;;;;;;;;;;4995370;28;20057;-67
2023/03/05 12:49:40;;;;;;;9.82;0.90;;;;;;;;;;4989639;28;20062;-66
2023/03/05 12:52:22;;;;;;;6.90;1.00;;;;;;;;;;4998393;28;20061;-66
2023/03/05 12:55:08;;;;;;;5.15;0.80;;;;;;;;;;4995971;28;20050;-66
2023/03/05 12:57:35;;;;;;;9.00;1.88;;;;;;;;;;4995061;28;20078;-66
2023/03/05 13:00:06;;;;;;;10.73;1.05;;;;;;;;;;4998769;28;20051;-66
2023/03/05 13:02:36;;;;;;;5.75;0.98;;;;;;;;;;5000802;28;20469;-66
2023/03/05 13:05:06;;;;;;;6.47;0.90;;;;;;;;;;4996368;28;20050;-66
2023/03/05 13:07:34;;;;;;;5.50;0.85;;;;;;;;;;4999882;28;20054;-66
2023/03/05 13:10:01;;;;;;;3.75;0.90;;;;;;;;;;4993969;28;20064;-66
2023/03/05 13:12:30;;;;;;;9.43;1.27;;;;;;;;;;4998777;28;20435;-66
2023/03/05 13:15:03;;;;;;;4.07;0.75;;;;;;;;;;5002062;28;20057;-66
2023/03/05 13:17:38;;;;;;;5.63;0.82;;;;;;;;;;4993194;28;20056;-66
2023/03/05 13:20:20;;;;;;;5.60;0.80;;;;;;;;;;4991074;28;20051;-66
2023/03/05 13:22:48;;;;;;;5.20;0.60;;;;;;;;;;4991762;28;20054;-66
2023/03/05 13:25:19;;;;;;;4.88;0.70;;;;;;;;;;4970050;28;20065;-66
2023/03/05 13:27:46;;;;;;;5.75;0.75;;;;;;;;;;4994478;28;20374;-66
2023/03/05 13:30:21;;;;;;;7.50;1.40;;;;;;;;;;4982811;28;20058;-67
2023/03/05 13:32:51;;;;;;;10.38;1.08;;;;;;;;;;4999085;28;20057;-67
2023/03/05 13:35:19;;;;;;;8.27;0.77;;;;;;;;;;4995366;28;20085;-67
2023/03/05 13:37:47;;;;;;;7.47;1.00;;;;;;;;;;5000533;28;20054;-66
2023/03/05 13:40:19;;;;;;;5.97;0.77;;;;;;;;;;4992177;28;20096;-66
2023/03/05 13:42:47;;;;;;;5.60;0.80;;;;;;;;;;4993058;28;20073;-66
2023/03/05 13:45:22;;;;;;;6.25;0.70;;;;;;;;;;4993302;28;20061;-66
2023/03/05 13:47:52;;;;;;;4.40;0.68;;;;;;;;;;4976768;28;20065;-66
2023/03/05 13:50:24;;;;;;;5.78;0.82;;;;;;;;;;4991595;28;20056;-66
2023/03/05 13:52:51;;;;;;;5.72;0.80;;;;;;;;;;4995259;28;20050;-67
2023/03/05 13:55:20;;;;;;;3.13;0.60;;;;;;;;;;5002601;28;20060;-67
2023/03/05 13:57:49;;;;;;;8.27;0.65;;;;;;;;;;4994409;28;20057;-66
2023/03/05 14:00:28;;;;;;;3.55;0.80;;;;;;;;;;4973380;28;20051;-66
2023/03/05 14:02:55;;;;;;;8.00;1.00;;;;;;;;;;4993116;28;20046;-66
2023/03/05 14:05:23;;;;;;;3.15;0.60;;;;;;;;;;4994547;28;20520;-66
2023/03/05 14:07:51;;;;;;;5.57;0.70;;;;;;;;;;4994075;28;20042;-66
2023/03/05 14:10:31;;;;;;;8.05;0.80;;;;;;;;;;4994092;28;20054;-66
2023/03/05 14:12:59;;;;;;;5.35;0.80;;;;;;;;;;4990111;28;20408;-67
2023/03/05 14:15:27;;;;;;;4.78;0.50;;;;;;;;;;4991119;28;20050;-66
2023/03/05 14:18:08;;;;;;;9.48;0.80;;;;;;;;;;4992740;28;20038;-66
2023/03/05 14:20:35;;;;;;;8.80;0.77;;;;;;;;;;4995703;28;20123;-66
2023/03/05 14:23:02;;;;;;;2.92;0.57;;;;;;;;;;4993866;28;20073;-66
2023/03/05 14:25:37;;;;;;;5.07;0.60;;;;;;;;;;4990181;28;20514;-67
2023/03/05 14:28:05;;;;;;;6.20;1.05;;;;;;;;;;4993954;28;20048;-66
2023/03/05 14:30:34;;;;;;;5.22;0.90;;;;;;;;;;4995287;28;20125;-66
2023/03/05 14:33:03;;;;;;;5.15;0.80;;;;;;;;;;4993454;28;20050;-66
2023/03/05 14:35:30;;;;;;;8.68;1.10;;;;;;;;;;4995946;28;20084;-66
2023/03/05 14:37:58;;;;;;;7.13;0.95;;;;;;;;;;4994579;28;20132;-66
2023/03/05 14:40:28;;;;;;;3.83;0.65;;;;;;;;;;4994281;28;20073;-66
2023/03/05 14:42:57;;;;;;;10.20;1.10;;;;;;;;;;4993689;28;20050;-67
2023/03/05 14:45:25;;;;;;;9.73;1.15;;;;;;;;;;4994452;28;20057;-66
2023/03/05 14:47:53;;;;;;;6.47;1.90;;;;;;;;;;4995164;28;20056;-66
2023/03/05 14:50:21;;;;;;;9.55;2.55;;;;;;;;;;4993577;28;20615;-67
2023/03/05 14:52:50;;;;;;;4.53;0.85;;;;;;;;;;4992589;28;20054;-66